Time;durP1;ratioP1;P1;durP2;ratioP2;P2;SDS_P1;SDS_P2;PMS_P1;PMS_P2;Temp;Humidity;BMP_temperature;BMP_pressure;BME280_temperature;BME280_humidity;BME280_pressure;Samples;Min_cycle;Max_cycle;Signal;HPM_P1;HPM_P2
2022/03/10 00:00:20;;;;;;;10.20;8.40;;;9.60;38.10;;;12.26;33.19;102538.00;5033674;28;20190;-51
2022/03/10 00:02:47;;;;;;;10.17;8.53;;;9.60;38.00;;;12.25;33.30;102541.59;5033619;28;20274;-49
2022/03/10 00:05:18;;;;;;;11.87;8.57;;;9.50;38.10;;;12.24;33.43;102548.69;5033871;28;20189;-51
2022/03/10 00:07:46;;;;;;;10.63;8.80;;;9.50;38.40;;;12.24;33.52;102537.31;5033296;28;20218;-50
2022/03/10 00:10:14;;;;;;;10.87;9.40;;;9.50;38.50;;;12.22;33.57;102549.78;5033482;28;20190;-49
2022/03/10 00:12:53;;;;;;;8.97;8.07;;;9.50;38.30;;;12.15;33.64;102546.03;5033230;28;20198;-50
2022/03/10 00:15:23;;;;;;;14.10;8.43;;;9.40;38.60;;;12.13;33.90;102540.09;5032902;28;20190;-50
2022/03/10 00:17:53;;;;;;;10.90;8.53;;;9.40;38.70;;;12.10;33.60;102541.19;5032485;28;20548;-51
2022/03/10 00:20:21;;;;;;;11.27;8.83;;;9.40;38.70;;;12.09;33.68;102544.81;5032972;28;20197;-49
2022/03/10 00:22:50;;;;;;;10.77;8.87;;;9.40;38.70;;;12.06;33.74;102545.09;5032941;28;20191;-49
2022/03/10 00:25:18;;;;;;;10.23;8.57;;;9.30;39.00;;;12.03;34.00;102534.81;5032801;28;20641;-47
2022/03/10 00:27:46;;;;;;;12.77;9.10;;;9.30;39.00;;;12.01;33.62;102547.31;5032161;28;20336;-50
2022/03/10 00:30:15;;;;;;;9.90;8.90;;;9.30;39.10;;;12.01;34.07;102547.31;5033370;28;20195;-52
2022/03/10 00:32:48;;;;;;;9.90;8.80;;;9.30;39.20;;;11.97;34.17;102559.13;5036389;28;20193;-49
2022/03/10 00:35:18;;;;;;;11.47;8.60;;;9.20;39.20;;;11.94;33.80;102561.19;5036054;28;20648;-49
2022/03/10 00:37:53;;;;;;;13.07;9.70;;;9.20;39.30;;;11.91;34.07;102558.84;5035918;28;20219;-49
2022/03/10 00:40:21;;;;;;;9.50;8.50;;;9.20;39.20;;;11.88;33.85;102557.31;5036150;28;20195;-49
2022/03/10 00:42:49;;;;;;;11.27;8.33;;;9.20;39.30;;;11.84;34.15;102558.56;5035903;28;20191;-50
2022/03/10 00:45:18;;;;;;;10.03;8.37;;;9.10;39.30;;;11.84;34.17;102568.28;5035780;28;20209;-50
2022/03/10 00:47:46;;;;;;;11.30;9.40;;;9.10;39.10;;;11.82;33.88;102573.69;5035451;28;20215;-49
2022/03/10 00:50:14;;;;;;;9.93;8.80;;;9.10;39.40;;;11.84;34.24;102574.38;5035736;28;20191;-50
2022/03/10 00:52:43;;;;;;;9.93;8.80;;;9.00;39.50;;;11.81;34.34;102564.13;5035826;28;20201;-49
2022/03/10 00:55:15;;;;;;;10.03;8.97;;;9.00;39.70;;;11.80;34.41;102565.09;5046615;28;20215;-52
2022/03/10 00:57:42;;;;;;;10.30;9.20;;;9.00;39.60;;;11.77;34.43;102569.78;5044409;28;20252;-49
2022/03/10 01:00:11;;;;;;;10.67;8.30;;;9.00;39.80;;;11.69;34.64;102567.84;5036833;28;20194;-48
2022/03/10 01:02:40;;;;;;;11.33;8.63;;;9.00;40.00;;;11.67;34.77;102563.66;5036682;28;20286;-50
2022/03/10 01:05:10;;;;;;;10.90;8.83;;;8.90;39.90;;;11.64;34.96;102567.41;5035608;28;20248;-49
2022/03/10 01:07:37;;;;;;;9.23;7.93;;;8.90;40.00;;;11.62;34.90;102564.06;5035168;28;20215;-49
2022/03/10 01:10:07;;;;;;;11.13;8.60;;;8.90;40.40;;;11.59;34.99;102566.97;5035570;28;20198;-49
2022/03/10 01:12:35;;;;;;;11.83;9.10;;;8.80;40.30;;;11.57;35.09;102563.63;5035340;28;20278;-51
2022/03/10 01:15:04;;;;;;;11.70;8.30;;;8.80;40.50;;;11.56;35.21;102567.22;5035317;28;20194;-52
2022/03/10 01:17:31;;;;;;;11.13;8.77;;;8.80;40.60;;;11.51;35.19;102575.53;5034808;28;20222;-49
2022/03/10 01:20:00;;;;;;;9.90;8.47;;;8.80;40.60;;;11.48;34.92;102564.44;5035630;28;20190;-48
2022/03/10 01:22:27;;;;;;;8.70;7.63;;;8.70;40.50;;;11.46;34.76;102566.38;5035914;28;20191;-49
2022/03/10 01:24:55;;;;;;;10.20;9.00;;;8.70;40.60;;;11.42;35.52;102562.34;5036595;28;20282;-49
2022/03/10 01:27:22;;;;;;;11.33;8.40;;;8.70;40.90;;;11.39;35.08;102562.59;5035410;28;20230;-49
2022/03/10 01:29:49;;;;;;;10.17;8.90;;;8.60;40.80;;;11.37;35.19;102561.91;5035126;28;20187;-51
2022/03/10 01:32:17;;;;;;;12.47;8.83;;;8.60;40.80;;;11.34;35.56;102559.53;5035069;28;20197;-49
2022/03/10 01:34:44;;;;;;;9.77;8.70;;;8.60;41.10;;;11.27;35.80;102561.03;5035198;28;20546;-49
2022/03/10 01:37:13;;;;;;;9.37;8.37;;;8.60;41.30;;;11.26;35.17;102560.22;5034523;28;20216;-49
2022/03/10 01:39:40;;;;;;;9.87;8.87;;;8.60;41.20;;;11.24;35.48;102553.41;5035790;28;20198;-48
2022/03/10 01:42:07;;;;;;;11.97;9.30;;;8.50;41.30;;;11.22;35.50;102552.72;5033970;28;20191;-49
2022/03/10 01:44:36;;;;;;;10.13;9.10;;;8.50;41.50;;;11.19;35.59;102555.63;5034814;28;20213;-50
2022/03/10 01:47:05;;;;;;;12.07;9.03;;;8.50;41.50;;;11.16;35.64;102553.25;5034709;28;20202;-48
2022/03/10 01:49:34;;;;;;;13.00;8.53;;;8.40;41.50;;;11.15;35.73;102551.59;5034825;28;20603;-49
2022/03/10 01:52:03;;;;;;;11.17;8.73;;;8.40;41.60;;;11.14;35.35;102555.19;5034586;28;20191;-50
2022/03/10 01:54:32;;;;;;;12.90;8.53;;;8.40;41.60;;;11.12;36.08;102557.13;5035036;28;20190;-51
2022/03/10 01:57:02;;;;;;;9.93;8.93;;;8.30;41.70;;;11.05;35.94;102567.38;5042155;28;20222;-50
2022/03/10 01:59:30;;;;;;;10.50;8.77;;;8.30;41.80;;;11.02;36.01;102561.50;5040052;28;20226;-49
2022/03/10 02:01:57;;;;;;;11.07;9.27;;;8.30;41.90;;;10.97;36.32;102564.53;5039296;28;20191;-50
2022/03/10 02:04:25;;;;;;;12.83;9.33;;;8.30;41.90;;;10.93;36.00;102557.03;5037959;28;20199;-50
2022/03/10 02:06:53;;;;;;;10.10;8.27;;;8.30;42.00;;;10.90;35.58;102563.41;5038372;28;20214;-50
2022/03/10 02:12:13;;;;;;;10.50;8.77;;;8.20;42.00;;;10.85;36.40;102570.84;5038006;28;20285;-52
2022/03/10 02:17:26;;;;;;;11.97;9.20;;;8.10;42.30;;;10.78;36.68;102561.81;5039030;28;20230;-50
2022/03/10 02:19:57;;;;;;;14.17;9.63;;;8.10;42.40;;;10.73;36.63;102561.38;5038826;28;20193;-50
2022/03/10 02:22:26;;;;;;;11.47;10.27;;;8.10;42.60;;;10.66;36.40;102550.53;5039270;28;20649;-49
2022/03/10 02:24:54;;;;;;;14.23;9.23;;;8.00;42.70;;;10.61;37.18;102550.06;5039206;28;20201;-49
2022/03/10 02:27:24;;;;;;;11.87;9.53;;;8.00;42.90;;;10.53;36.65;102555.16;5037985;28;20210;-49
2022/03/10 02:29:53;;;;;;;10.70;9.27;;;8.00;42.90;;;10.51;37.17;102556.22;5039504;28;20190;-48
2022/03/10 02:32:22;;;;;;;11.37;9.30;;;7.90;42.90;;;10.49;37.04;102556.38;5039695;28;20201;-51
2022/03/10 02:34:50;;;;;;;12.13;9.33;;;7.90;42.90;;;10.48;36.63;102559.16;5038865;28;20233;-51
2022/03/10 02:37:19;;;;;;;11.77;9.57;;;7.80;43.00;;;10.45;36.76;102551.50;5039133;28;20260;-50
2022/03/10 02:39:48;;;;;;;12.67;10.43;;;7.80;43.20;;;10.43;36.79;102563.97;5038717;28;20194;-51
2022/03/10 02:42:16;;;;;;;11.07;9.70;;;7.80;43.30;;;10.42;37.16;102557.84;5038847;28;20186;-51
2022/03/10 02:44:45;;;;;;;12.20;9.97;;;7.80;43.40;;;10.42;37.09;102547.31;5037580;28;20194;-49
2022/03/10 02:47:14;;;;;;;12.87;10.27;;;7.80;43.60;;;10.41;37.32;102556.16;5038225;28;20202;-50
2022/03/10 02:49:42;;;;;;;13.40;9.77;;;7.70;44.10;;;10.41;36.93;102545.66;5037301;28;20216;-52
2022/03/10 02:52:10;;;;;;;13.40;9.53;;;7.70;43.60;;;10.39;37.51;102549.41;5037092;28;20202;-51
2022/03/10 02:54:44;;;;;;;14.03;9.77;;;7.70;43.60;;;10.36;37.30;102553.13;5034567;28;20205;-49
2022/03/10 02:57:13;;;;;;;9.93;8.63;;;7.70;43.80;;;10.34;37.36;102544.50;5036595;28;20700;-51
2022/03/10 02:59:42;;;;;;;12.27;10.60;;;7.70;43.70;;;10.33;37.27;102542.00;5038549;28;20210;-50
2022/03/10 03:02:09;;;;;;;14.30;10.37;;;7.60;44.00;;;10.30;37.21;102543.09;5037506;28;20212;-50
2022/03/10 03:04:37;;;;;;;10.70;8.97;;;7.60;43.90;;;10.28;37.63;102538.91;5038069;28;20199;-50
2022/03/10 03:07:04;;;;;;;11.10;8.93;;;7.60;43.90;;;10.29;37.51;102541.44;5035771;28;20543;-49
2022/03/10 03:09:32;;;;;;;12.57;9.47;;;7.60;43.80;;;10.32;37.37;102540.34;5036019;28;20190;-50
2022/03/10 03:11:59;;;;;;;13.40;10.10;;;7.60;44.00;;;10.32;37.42;102546.41;5039100;28;20213;-50
2022/03/10 03:14:28;;;;;;;11.47;9.63;;;7.60;44.10;;;10.29;37.13;102541.44;5040854;28;20198;-50
2022/03/10 03:16:56;;;;;;;12.40;10.10;;;7.60;44.00;;;10.27;37.71;102551.22;5040679;28;20221;-49
2022/03/10 03:19:24;;;;;;;11.93;10.60;;;7.50;44.10;;;10.20;37.89;102547.44;5039517;28;20201;-51
2022/03/10 03:21:52;;;;;;;12.40;9.00;;;7.50;44.20;;;10.14;37.29;102543.53;5039507;28;20230;-52
2022/03/10 03:24:20;;;;;;;19.30;10.83;;;7.50;44.20;;;10.06;37.45;102540.66;5038265;28;20273;-51
2022/03/10 03:26:48;;;;;;;12.40;10.20;;;7.40;44.20;;;10.00;37.95;102537.72;5039360;28;20215;-48
2022/03/10 03:29:16;;;;;;;12.70;10.13;;;7.40;44.30;;;9.96;38.00;102534.47;5035910;28;20687;-49
2022/03/10 03:31:44;;;;;;;13.03;10.50;;;7.40;44.10;;;9.94;37.58;102539.03;5034085;28;20194;-48
2022/03/10 03:34:12;;;;;;;13.00;9.97;;;7.30;44.10;;;9.91;38.29;102543.72;5033389;28;20186;-50
2022/03/10 03:36:42;;;;;;;13.57;9.73;;;7.30;44.50;;;9.89;38.19;102533.31;5036762;28;20672;-50
2022/03/10 03:39:10;;;;;;;14.10;9.40;;;7.30;44.50;;;9.86;38.08;102536.22;5034675;28;20206;-47
2022/03/10 03:41:38;;;;;;;11.13;9.43;;;7.30;44.70;;;9.88;38.02;102544.81;5033672;28;20213;-49
2022/03/10 03:44:09;;;;;;;11.17;9.57;;;7.20;44.60;;;9.92;38.08;102545.38;5034270;28;20224;-50
2022/03/10 03:46:37;;;;;;;12.50;9.47;;;7.20;44.60;;;9.95;38.35;102548.63;5034001;28;20290;-50
2022/03/10 03:49:08;;;;;;;13.93;9.77;;;7.20;44.80;;;9.97;38.04;102551.09;5034468;28;20207;-50
2022/03/10 03:51:36;;;;;;;10.70;9.47;;;7.20;44.80;;;10.01;37.76;102561.25;5033946;28;20191;-48
2022/03/10 03:54:05;;;;;;;12.73;9.80;;;7.20;44.90;;;10.01;37.89;102552.50;5034456;28;20197;-50
2022/03/10 03:56:32;;;;;;;12.63;9.93;;;7.20;44.90;;;10.03;37.82;102563.78;5033866;28;20239;-50
2022/03/10 03:58:59;;;;;;;12.77;10.27;;;7.20;44.70;;;10.02;37.78;102559.47;5033641;28;20193;-48
2022/03/10 04:01:27;;;;;;;13.13;10.40;;;7.20;44.80;;;10.00;38.00;102566.66;5034290;28;20197;-50
2022/03/10 04:03:55;;;;;;;12.13;10.17;;;7.20;45.00;;;9.97;38.12;102559.84;5034662;28;20195;-49
2022/03/10 04:06:24;;;;;;;13.30;9.87;;;7.20;45.00;;;9.93;38.03;102560.22;5037174;28;20242;-49
2022/03/10 04:08:52;;;;;;;14.07;10.17;;;7.20;45.10;;;9.85;38.45;102566.09;5038418;28;20195;-49
2022/03/10 04:11:19;;;;;;;12.10;9.93;;;7.10;45.10;;;9.78;38.05;102561.44;5037630;28;20685;-49
2022/03/10 04:13:46;;;;;;;12.77;10.20;;;7.10;45.10;;;9.70;38.47;102564.69;5037773;28;20246;-48
2022/03/10 04:16:17;;;;;;;10.70;9.60;;;7.10;45.20;;;9.65;38.90;102568.69;5037202;28;20207;-49
2022/03/10 04:18:44;;;;;;;13.50;10.10;;;7.00;45.10;;;9.60;38.82;102569.03;5038108;28;20227;-50
2022/03/10 04:21:12;;;;;;;12.47;9.50;;;7.00;45.30;;;9.59;38.70;102577.03;5037859;28;20191;-49
2022/03/10 04:23:40;;;;;;;9.90;8.90;;;6.90;45.40;;;9.60;38.67;102573.47;5036198;28;20566;-49
2022/03/10 04:26:08;;;;;;;12.53;9.87;;;6.90;45.30;;;9.60;38.91;102573.47;5043166;28;20192;-50
2022/03/10 04:28:35;;;;;;;12.80;9.47;;;6.90;45.50;;;9.59;38.51;102583.13;5049972;28;20194;-51
2022/03/10 04:31:03;;;;;;;11.50;10.00;;;6.90;45.50;;;9.59;38.83;102588.38;5039631;28;20217;-48
2022/03/10 04:33:31;;;;;;;10.83;9.67;;;6.90;45.50;;;9.59;38.74;102592.81;5036974;28;20274;-49
2022/03/10 04:35:58;;;;;;;13.57;10.10;;;6.90;45.60;;;9.60;38.44;102594.50;5037349;28;20555;-47
2022/03/10 04:38:25;;;;;;;12.07;10.77;;;6.90;45.50;;;9.57;38.68;102592.94;5037221;28;20207;-47
2022/03/10 04:40:54;;;;;;;16.17;10.47;;;6.80;45.80;;;9.57;38.86;102594.72;5037062;28;20201;-49
2022/03/10 04:43:24;;;;;;;11.43;8.77;;;6.80;45.70;;;9.59;38.55;102595.44;5036797;28;20197;-46
2022/03/10 04:45:52;;;;;;;10.53;9.03;;;6.80;45.60;;;9.61;38.40;102606.66;5036965;28;20266;-47
2022/03/10 04:48:19;;;;;;;11.97;9.40;;;6.80;45.50;;;9.64;38.39;102612.53;5035705;28;20199;-51
2022/03/10 04:50:47;;;;;;;11.07;9.87;;;6.80;45.50;;;9.69;38.29;102615.63;5036066;28;20202;-47
2022/03/10 04:53:15;;;;;;;11.17;9.07;;;6.80;45.90;;;9.74;38.56;102615.25;5036369;28;20544;-49
2022/03/10 04:55:42;;;;;;;11.37;9.00;;;6.80;45.70;;;9.78;38.16;102622.78;5036037;28;20202;-49
2022/03/10 04:58:11;;;;;;;13.93;9.33;;;6.80;45.70;;;9.83;38.50;102617.97;5035628;28;20219;-49
2022/03/10 05:00:38;;;;;;;14.27;9.83;;;6.80;45.70;;;9.86;37.99;102622.16;5035827;28;20625;-50
2022/03/10 05:03:06;;;;;;;13.07;9.67;;;6.90;45.80;;;9.86;38.52;102606.38;5036243;28;20186;-47
2022/03/10 05:05:33;;;;;;;13.33;10.10;;;6.80;46.00;;;9.80;38.56;102609.50;5036690;28;20186;-47
2022/03/10 05:08:01;;;;;;;10.13;8.77;;;6.90;45.90;;;9.78;38.55;102609.63;5035429;28;20235;-48
2022/03/10 05:10:33;;;;;;;11.97;9.50;;;6.90;45.80;;;9.77;38.11;102607.13;5035660;28;20218;-48
2022/03/10 05:13:03;;;;;;;12.03;9.43;;;6.80;45.60;;;9.78;38.05;102608.78;5036367;28;20200;-49
2022/03/10 05:15:34;;;;;;;12.03;9.90;;;6.90;45.70;;;9.77;38.38;102617.66;5035594;28;20220;-46
2022/03/10 05:18:05;;;;;;;13.43;9.53;;;6.90;45.70;;;9.74;38.43;102610.00;5034919;28;20297;-48
2022/03/10 05:20:35;;;;;;;12.13;9.43;;;6.90;45.90;;;9.69;38.44;102615.63;5035473;28;20221;-49
2022/03/10 05:23:04;;;;;;;13.67;9.83;;;6.80;45.70;;;9.65;38.21;102614.19;5035582;28;20192;-49
2022/03/10 05:25:34;;;;;;;11.03;8.83;;;6.80;45.60;;;9.62;38.63;102616.22;5035295;28;20218;-50
2022/03/10 05:28:03;;;;;;;13.33;10.00;;;6.80;45.60;;;9.62;38.19;102624.13;5035658;28;20311;-50
2022/03/10 05:30:30;;;;;;;11.07;9.47;;;6.80;45.60;;;9.60;38.20;102624.25;5035469;28;20202;-49
2022/03/10 05:32:59;;;;;;;11.90;9.17;;;6.80;45.50;;;9.58;38.37;102630.59;5035717;28;20203;-48
2022/03/10 05:35:29;;;;;;;12.27;9.03;;;6.80;45.70;;;9.59;38.53;102635.72;5035597;28;20202;-49
2022/03/10 05:37:57;;;;;;;11.90;9.83;;;6.80;45.60;;;9.59;38.72;102633.09;5035241;28;20211;-49
2022/03/10 05:40:24;;;;;;;9.97;8.97;;;6.70;45.70;;;9.59;38.46;102629.59;5035547;28;20195;-48
2022/03/10 05:42:54;;;;;;;13.70;9.97;;;6.70;45.70;;;9.55;38.37;102629.84;5035660;28;20188;-49
2022/03/10 05:45:22;;;;;;;14.17;10.63;;;6.80;45.90;;;9.52;38.41;102635.38;5035756;28;20209;-47
2022/03/10 05:47:52;;;;;;;15.87;10.30;;;6.80;45.80;;;9.48;39.00;102644.44;5039629;28;20216;-49
2022/03/10 05:50:25;;;;;;;14.80;10.47;;;6.80;46.10;;;9.43;38.61;102630.00;5035500;28;20191;-49
2022/03/10 05:52:53;;;;;;;16.13;10.10;;;6.70;46.00;;;9.42;38.95;102634.41;5035074;28;20194;-47
2022/03/10 05:55:23;;;;;;;14.43;10.40;;;6.70;46.30;;;9.37;39.42;102633.09;5034974;28;20186;-49
2022/03/10 05:57:50;;;;;;;13.57;10.70;;;6.70;46.20;;;9.30;39.15;102630.09;5034811;28;20273;-49
2022/03/10 06:00:19;;;;;;;14.00;10.67;;;6.70;46.30;;;9.26;38.99;102631.31;5034859;28;20262;-49
2022/03/10 06:02:48;;;;;;;15.53;10.87;;;6.60;46.30;;;9.24;39.36;102630.59;5034863;28;20191;-47
2022/03/10 06:05:15;;;;;;;13.23;10.40;;;6.60;46.30;;;9.24;39.41;102633.22;5036275;28;20197;-48
2022/03/10 06:07:44;;;;;;;15.10;10.33;;;6.60;46.40;;;9.22;39.61;102637.72;5035987;28;20216;-48
2022/03/10 06:10:11;;;;;;;14.93;10.77;;;6.60;46.60;;;9.25;39.36;102637.50;5039135;28;20190;-48
2022/03/10 06:12:40;;;;;;;14.57;10.97;;;6.60;46.50;;;9.27;39.25;102630.34;5036455;28;20203;-49
2022/03/10 06:15:10;;;;;;;19.67;10.90;;;6.60;46.60;;;9.28;39.51;102642.53;5036882;28;20269;-46
2022/03/10 06:17:37;;;;;;;15.03;11.53;;;6.60;46.60;;;9.32;39.57;102649.22;5035496;28;20302;-48
2022/03/10 06:20:07;;;;;;;15.67;10.33;;;6.60;46.70;;;9.37;39.43;102657.56;5036344;28;20194;-47
2022/03/10 06:22:35;;;;;;;18.60;12.87;;;6.60;46.60;;;9.42;39.27;102658.06;5037806;28;20269;-47
2022/03/10 06:25:05;;;;;;;18.10;11.17;;;6.60;46.60;;;9.46;39.17;102656.84;5039694;28;20639;-48
2022/03/10 06:27:34;;;;;;;15.57;10.70;;;6.70;46.80;;;9.47;38.94;102653.28;5047588;28;20713;-49
2022/03/10 06:30:01;;;;;;;11.80;9.90;;;6.70;46.50;;;9.50;38.96;102658.31;5057493;28;20219;-49
2022/03/10 06:32:29;;;;;;;16.03;10.20;;;6.70;46.50;;;9.53;38.76;102662.50;5057479;28;20629;-47
2022/03/10 06:34:59;;;;;;;16.37;11.07;;;6.70;46.40;;;9.57;38.93;102655.19;5057523;28;20668;-49
2022/03/10 06:37:27;;;;;;;14.50;11.00;;;6.70;46.40;;;9.59;38.86;102655.91;5058874;28;20224;-50
2022/03/10 06:39:54;;;;;;;15.40;10.83;;;6.80;46.40;;;9.60;38.56;102662.84;5054949;28;20218;-48
2022/03/10 06:42:23;;;;;;;13.63;9.60;;;6.80;46.30;;;9.61;38.67;102656.59;5055113;28;20205;-48
2022/03/10 06:44:51;;;;;;;15.40;10.70;;;6.80;46.20;;;9.58;38.83;102667.38;5055592;28;20220;-49
2022/03/10 06:47:18;;;;;;;13.17;10.00;;;6.80;46.10;;;9.54;38.78;102664.16;5054241;28;20218;-48
2022/03/10 06:49:46;;;;;;;15.70;10.60;;;6.80;45.80;;;9.50;38.87;102674.06;5054908;28;20189;-49
2022/03/10 06:52:19;;;;;;;13.27;9.73;;;6.80;45.80;;;9.50;38.54;102674.06;5056450;28;20197;-51
2022/03/10 06:54:47;;;;;;;14.30;10.67;;;6.80;45.70;;;9.57;38.77;102673.59;5055519;28;20198;-51
2022/03/10 06:57:17;;;;;;;11.50;9.10;;;6.90;45.90;;;9.63;38.53;102678.38;5054129;28;20209;-48
2022/03/10 06:59:46;;;;;;;12.97;9.30;;;6.90;45.80;;;9.68;38.57;102676.19;5054241;28;20226;-48
2022/03/10 07:02:15;;;;;;;12.17;9.40;;;6.90;45.70;;;9.69;38.08;102676.09;5054788;28;20199;-48
2022/03/10 07:04:43;;;;;;;14.07;10.03;;;7.00;45.70;;;9.73;38.45;102679.31;5053313;28;20255;-49
2022/03/10 07:07:10;;;;;;;10.97;9.07;;;7.00;45.50;;;9.84;38.35;102679.31;5054061;28;20292;-49
2022/03/10 07:09:37;;;;;;;13.63;9.63;;;7.20;45.40;;;9.97;37.98;102682.63;5055957;28;20200;-49
2022/03/10 07:12:06;;;;;;;10.50;9.47;;;7.30;45.20;;;10.20;37.85;102679.00;5056722;28;20200;-52
2022/03/10 07:14:33;;;;;;;13.33;9.67;;;7.40;44.90;;;10.40;37.37;102680.03;5056683;28;20194;-49
2022/03/10 07:17:02;;;;;;;12.93;9.00;;;7.60;44.30;;;10.65;36.69;102680.50;5056277;28;20218;-50
2022/03/10 07:19:29;;;;;;;12.73;8.97;;;7.90;43.90;;;10.89;36.34;102685.53;5056634;28;20239;-48
2022/03/10 07:21:57;;;;;;;12.63;9.33;;;8.10;43.40;;;11.25;35.79;102690.34;5037076;28;20205;-47
2022/03/10 07:24:25;;;;;;;13.70;10.10;;;8.40;43.00;;;11.70;35.81;102687.34;5054690;28;20202;-50
2022/03/10 07:26:58;;;;;;;11.77;9.10;;;8.70;42.50;;;12.10;34.21;102689.00;5053789;28;20208;-49
2022/03/10 07:29:26;;;;;;;13.80;9.50;;;9.10;41.20;;;12.36;33.76;102683.22;5055010;28;20500;-50
2022/03/10 07:31:56;;;;;;;16.73;11.10;;;9.50;40.20;;;12.59;33.67;102689.88;5055074;28;20583;-49
2022/03/10 07:34:25;;;;;;;13.40;9.87;;;9.70;39.60;;;12.66;32.84;102685.72;5055250;28;20197;-49
2022/03/10 07:36:53;;;;;;;12.87;9.40;;;9.90;38.70;;;12.73;32.73;102687.66;5054127;28;20332;-49
2022/03/10 07:39:21;;;;;;;11.17;9.17;;;10.00;37.40;;;12.86;32.37;102687.34;5056229;28;20209;-49
2022/03/10 07:41:49;;;;;;;9.50;8.50;;;10.10;37.10;;;12.97;32.44;102686.38;5059316;28;20197;-48
2022/03/10 07:44:16;;;;;;;14.23;8.90;;;10.20;36.90;;;13.19;32.20;102684.25;5059299;28;20205;-51
2022/03/10 07:46:45;;;;;;;11.63;9.57;;;10.40;37.00;;;13.32;31.68;102682.13;5057843;28;20721;-50
2022/03/10 07:49:12;;;;;;;10.87;8.33;;;10.60;36.40;;;13.46;31.66;102686.13;5046635;28;20190;-49
2022/03/10 07:51:42;;;;;;;11.77;8.90;;;10.70;36.00;;;13.60;30.98;102687.47;5022034;28;20214;-47
2022/03/10 07:54:10;;;;;;;11.93;8.50;;;10.80;35.30;;;13.61;30.94;102683.81;5028639;28;20195;-49
2022/03/10 07:56:38;;;;;;;11.60;8.97;;;10.90;34.70;;;13.61;30.95;102683.81;5027293;28;20234;-48
2022/03/10 07:59:06;;;;;;;11.13;8.33;;;11.00;34.70;;;13.66;30.90;102684.22;5037478;28;20223;-48
2022/03/10 08:01:33;;;;;;;10.27;9.17;;;11.20;34.50;;;13.84;30.89;102680.66;5031337;28;20194;-48
2022/03/10 08:04:02;;;;;;;9.17;7.90;;;11.30;34.60;;;14.10;30.65;102680.75;5020263;28;20258;-49
2022/03/10 08:06:32;;;;;;;11.60;8.47;;;11.40;34.50;;;14.29;30.05;102675.31;5024685;28;20247;-49
2022/03/10 08:09:02;;;;;;;10.83;8.57;;;11.60;34.00;;;14.57;29.77;102676.94;5022728;28;20217;-48
2022/03/10 08:11:29;;;;;;;11.47;9.10;;;11.70;33.60;;;14.59;29.62;102675.00;5020912;28;20557;-49
2022/03/10 08:13:56;;;;;;;10.87;8.80;;;11.80;33.20;;;14.76;29.56;102682.06;5026446;28;20202;-50
2022/03/10 08:16:24;;;;;;;13.77;8.67;;;12.00;33.10;;;15.01;29.42;102676.94;5029311;28;20233;-49
2022/03/10 08:18:51;;;;;;;11.87;8.63;;;12.20;33.20;;;15.09;28.97;102671.72;5026207;28;20219;-49
2022/03/10 08:21:18;;;;;;;16.40;11.63;;;12.20;32.70;;;15.42;28.87;102673.56;5024277;28;20209;-51
2022/03/10 08:23:46;;;;;;;9.80;8.20;;;12.50;33.30;;;15.87;28.56;102678.59;5026869;28;20581;-50
2022/03/10 08:26:14;;;;;;;13.80;12.27;;;12.70;32.80;;;16.51;28.29;102680.53;5024056;28;20234;-49
2022/03/10 08:28:42;;;;;;;9.83;8.33;;;13.10;33.10;;;16.93;26.95;102678.53;5024303;28;20202;-51
2022/03/10 08:31:10;;;;;;;12.27;9.00;;;13.40;31.40;;;17.48;26.61;102674.09;5028799;28;20206;-48
2022/03/10 08:33:37;;;;;;;9.70;8.37;;;13.80;31.50;;;18.06;26.47;102668.34;5031725;28;20218;-51
2022/03/10 08:36:06;;;;;;;10.00;9.00;;;14.20;30.80;;;18.69;25.14;102668.06;5032311;28;20191;-50
2022/03/10 08:38:35;;;;;;;9.87;8.37;;;14.70;29.80;;;19.21;24.14;102673.38;5027919;28;20222;-49
2022/03/10 08:41:02;;;;;;;9.33;8.27;;;15.10;29.00;;;19.43;23.45;102671.66;5031004;28;20630;-51
2022/03/10 08:43:32;;;;;;;11.13;8.67;;;15.50;28.10;;;19.54;23.45;102673.88;5030481;28;20206;-48
2022/03/10 08:46:02;;;;;;;10.80;8.17;;;15.80;27.80;;;19.87;23.15;102667.06;5029582;28;20206;-48
2022/03/10 08:48:32;;;;;;;10.00;9.00;;;16.10;27.60;;;20.32;23.61;102667.81;5031115;28;20190;-49
2022/03/10 08:51:00;;;;;;;9.03;8.13;;;16.50;27.90;;;20.87;22.60;102662.53;5025845;28;20265;-50
2022/03/10 08:53:29;;;;;;;8.70;7.80;;;16.80;27.10;;;21.49;22.48;102657.97;5027030;28;20755;-49
2022/03/10 08:55:56;;;;;;;9.17;8.10;;;17.20;28.00;;;21.97;20.88;102666.00;5025835;28;20198;-49
2022/03/10 08:58:25;;;;;;;10.10;7.43;;;17.60;26.30;;;22.27;20.90;102656.59;5022333;28;20610;-51
2022/03/10 09:00:54;;;;;;;9.03;8.17;;;18.00;25.80;;;22.45;20.76;102651.44;5026016;28;20199;-51
2022/03/10 09:03:42;;;;;;;7.97;7.27;;;18.30;25.30;;;22.67;20.28;102644.88;5020867;28;20698;-50
2022/03/10 09:06:12;;;;;;;10.60;9.60;;;18.60;25.30;;;22.95;20.48;102647.31;5023630;28;20199;-50
2022/03/10 09:08:40;;;;;;;8.53;7.73;;;18.90;25.70;;;23.32;19.71;102649.28;5026609;28;20226;-49
2022/03/10 09:11:07;;;;;;;9.03;7.87;;;19.10;24.40;;;23.55;19.94;102648.84;5022372;28;20222;-49
2022/03/10 09:13:34;;;;;;;8.17;7.37;;;19.40;24.60;;;24.06;19.64;102654.13;5022803;28;20198;-49
2022/03/10 09:16:05;;;;;;;8.53;7.73;;;19.70;24.50;;;24.51;19.16;102657.59;5024685;28;20272;-52
2022/03/10 09:18:34;;;;;;;7.73;7.03;;;20.00;24.00;;;24.65;18.94;102654.53;5024599;28;20215;-53
2022/03/10 09:21:02;;;;;;;9.20;7.17;;;20.30;23.50;;;25.05;18.80;102656.91;5020967;28;20195;-49
2022/03/10 09:23:30;;;;;;;8.63;7.83;;;20.60;23.80;;;25.57;18.18;102636.63;5013752;28;20241;-50
2022/03/10 09:25:57;;;;;;;9.37;8.37;;;21.00;23.90;;;26.05;17.76;102640.91;5023313;28;20198;-51
2022/03/10 09:28:24;;;;;;;7.53;6.93;;;21.30;23.10;;;26.35;17.12;102632.78;5020578;28;20636;-51
2022/03/10 09:30:52;;;;;;;11.47;8.00;;;21.60;22.40;;;26.34;17.34;102643.84;5035358;28;20240;-46
2022/03/10 09:33:21;;;;;;;9.80;7.80;;;21.80;22.00;;;26.22;17.22;102640.28;5027720;28;20242;-53
2022/03/10 09:35:48;;;;;;;6.90;6.30;;;21.90;21.30;;;26.21;17.00;102628.66;5020185;28;20218;-52
2022/03/10 09:38:18;;;;;;;8.87;7.83;;;22.00;21.60;;;26.48;17.19;102640.66;5023911;28;20300;-50
2022/03/10 09:40:47;;;;;;;7.63;6.80;;;22.20;21.80;;;26.71;17.04;102629.06;5029033;28;20197;-51
2022/03/10 09:43:14;;;;;;;8.33;7.13;;;22.30;21.20;;;26.89;16.61;102636.28;5026058;28;20190;-49
2022/03/10 09:45:48;;;;;;;9.73;8.83;;;22.40;21.40;;;27.10;16.48;102632.94;5023064;28;20195;-52
2022/03/10 09:48:16;;;;;;;8.10;7.33;;;22.60;21.50;;;27.23;15.76;102628.09;5023994;28;20219;-50
2022/03/10 09:50:48;;;;;;;7.43;6.73;;;22.80;20.40;;;27.24;15.76;102628.91;5023653;28;20206;-50
2022/03/10 09:53:18;;;;;;;8.27;7.47;;;22.90;20.50;;;27.41;16.45;102629.81;5019938;28;20285;-50
2022/03/10 09:55:46;;;;;;;8.03;7.33;;;23.00;20.90;;;27.62;15.76;102631.91;5022580;28;20281;-50
2022/03/10 09:58:13;;;;;;;8.50;7.70;;;23.10;20.40;;;27.75;15.91;102626.19;5017883;28;20239;-53
2022/03/10 10:00:40;;;;;;;8.20;7.40;;;23.20;20.30;;;27.83;15.87;102636.63;5027875;28;20765;-52
2022/03/10 10:03:10;;;;;;;8.70;7.77;;;23.40;20.50;;;27.98;15.49;102638.78;5025648;28;20218;-52
2022/03/10 10:05:39;;;;;;;7.73;7.10;;;23.50;20.10;;;28.08;15.76;102644.41;5021603;28;20199;-50
2022/03/10 10:08:15;;;;;;;8.77;7.90;;;23.60;20.40;;;28.44;15.38;102634.97;5017243;28;20222;-50
2022/03/10 10:10:45;;;;;;;9.27;8.37;;;23.80;20.60;;;29.16;15.47;102636.63;5022514;28;20632;-51
2022/03/10 10:13:31;;;;;;;7.60;7.00;;;24.20;20.80;;;29.75;14.64;102626.72;5027515;28;20278;-50
2022/03/10 10:16:01;;;;;;;8.10;7.40;;;24.50;19.80;;;29.71;14.19;102631.03;5026082;28;20216;-52
2022/03/10 10:18:32;;;;;;;7.83;7.13;;;24.60;19.20;;;29.67;14.69;102629.91;5021033;28;20207;-53
2022/03/10 10:21:18;;;;;;;8.77;7.93;;;24.80;19.60;;;30.04;14.42;102630.84;5016407;28;20207;-54
2022/03/10 10:23:49;;;;;;;8.27;7.57;;;25.10;19.40;;;29.98;14.08;102631.03;5018743;28;20199;-52